createdAt,value
2018-02-27T00:02:11.245Z,92477.95
2018-02-27T00:04:38.793Z,92472.52
2018-02-27T00:07:06.356Z,92471.05
2018-02-27T00:09:33.927Z,92463.41
2018-02-27T00:12:02.236Z,92465.55
2018-02-27T00:14:29.798Z,92474.20
2018-02-27T00:16:57.532Z,92462.78
2018-02-27T00:19:25.091Z,92458.97
2018-02-27T00:21:52.648Z,92464.27
2018-02-27T00:24:20.227Z,92466.38
2018-02-27T00:26:47.783Z,92469.59
2018-02-27T00:29:15.322Z,92478.30
2018-02-27T00:31:42.907Z,92472.14
2018-02-27T00:34:10.458Z,92468.59
2018-02-27T00:36:37.999Z,92463.25
2018-02-27T00:39:05.602Z,92459.38
2018-02-27T00:41:33.142Z,92460.56
2018-02-27T00:44:00.681Z,92461.11
2018-02-27T00:46:28.279Z,92458.10
2018-02-27T00:48:55.836Z,92452.88
2018-02-27T00:51:23.386Z,92450.42
2018-02-27T00:53:50.963Z,92445.56
2018-02-27T00:56:18.512Z,92455.37
2018-02-27T00:58:46.071Z,92445.54
2018-02-27T01:01:13.793Z,92449.22
2018-02-27T01:03:41.328Z,92452.97
2018-02-27T01:06:08.859Z,92446.92
2018-02-27T01:08:36.586Z,92439.17
2018-02-27T01:11:04.134Z,92438.45
2018-02-27T01:13:31.674Z,92432.36
2018-02-27T01:15:59.270Z,92425.02
2018-02-27T01:18:26.815Z,92421.38
2018-02-27T01:20:54.357Z,92419.67
2018-02-27T01:23:21.945Z,92415.59
2018-02-27T01:25:49.480Z,92414.00
2018-02-27T01:28:17.021Z,92393.59
2018-02-27T01:30:44.603Z,92392.14
2018-02-27T01:33:12.154Z,92383.20
2018-02-27T01:35:39.734Z,92385.16
2018-02-27T01:38:07.452Z,92377.88
2018-02-27T01:40:34.990Z,92382.39
2018-02-27T01:43:02.535Z,92379.86
2018-02-27T01:45:30.113Z,92370.17
2018-02-27T01:47:57.667Z,92367.77
2018-02-27T01:50:25.221Z,92369.84
2018-02-27T01:52:52.794Z,92366.58
2018-02-27T01:55:20.355Z,92371.04
2018-02-27T01:57:47.894Z,92361.70
2018-02-27T02:00:15.745Z,92365.33
2018-02-27T02:02:43.283Z,92377.55
2018-02-27T02:05:10.833Z,92388.42
2018-02-27T02:07:38.415Z,92396.55
2018-02-27T02:10:05.957Z,92381.09
2018-02-27T02:12:33.505Z,92379.50
2018-02-27T02:15:01.102Z,92383.22
2018-02-27T02:17:28.637Z,92380.73
2018-02-27T02:19:56.190Z,92385.55
2018-02-27T02:22:23.755Z,92391.63
2018-02-27T02:24:51.294Z,92399.38
2018-02-27T02:27:18.845Z,92409.95
2018-02-27T02:29:46.430Z,92407.60
2018-02-27T02:32:13.964Z,92412.08
2018-02-27T02:34:41.503Z,92425.89
2018-02-27T02:37:09.087Z,92425.52
2018-02-27T02:39:36.627Z,92427.83
2018-02-27T02:42:24.233Z,92424.91
2018-02-27T02:44:52.750Z,92444.14
2018-02-27T02:47:20.300Z,92440.60
2018-02-27T02:49:48.030Z,92436.77
2018-02-27T02:52:15.590Z,92435.59
2018-02-27T02:54:43.129Z,92425.11
2018-02-27T02:57:10.886Z,92430.84
2018-02-27T02:59:38.435Z,92439.32
2018-02-27T03:02:05.969Z,92433.62
2018-02-27T03:04:33.555Z,92435.22
2018-02-27T03:07:01.094Z,92426.68
2018-02-27T03:09:28.638Z,92419.76
2018-02-27T03:11:56.505Z,92410.73
2018-02-27T03:14:24.056Z,92407.52
2018-02-27T03:16:51.633Z,92408.47
2018-02-27T03:19:19.208Z,92406.49
2018-02-27T03:21:46.771Z,92404.78
2018-02-27T03:24:14.317Z,92406.32
2018-02-27T03:26:42.191Z,92404.16
2018-02-27T03:29:09.747Z,92410.69
2018-02-27T03:31:37.306Z,92408.29
2018-02-27T03:34:05.047Z,92399.03
2018-02-27T03:36:32.595Z,92395.72
2018-02-27T03:39:00.148Z,92397.02
2018-02-27T03:41:27.874Z,92398.25
2018-02-27T03:43:55.417Z,92395.45
2018-02-27T03:46:22.968Z,92402.70
2018-02-27T03:48:50.562Z,92392.49
2018-02-27T03:51:18.097Z,92387.68
2018-02-27T03:53:45.637Z,92386.75
2018-02-27T03:56:13.217Z,92385.17
2018-02-27T03:58:40.762Z,92390.86
2018-02-27T04:01:08.333Z,92393.09
2018-02-27T04:03:35.930Z,92391.99
2018-02-27T04:06:03.475Z,92397.69
2018-02-27T04:08:31.021Z,92409.17
2018-02-27T04:10:58.704Z,92418.06
2018-02-27T04:13:26.256Z,92412.75
2018-02-27T04:15:53.800Z,92427.50
2018-02-27T04:18:21.378Z,92415.27
2018-02-27T04:20:48.912Z,92411.73
2018-02-27T04:23:16.483Z,92408.37
2018-02-27T04:25:44.153Z,92408.76
2018-02-27T04:28:11.702Z,92413.23
2018-02-27T04:30:39.255Z,92413.36
2018-02-27T04:33:06.979Z,92416.50
2018-02-27T04:35:34.526Z,92411.28
2018-02-27T04:38:02.070Z,92407.60
2018-02-27T04:40:29.662Z,92412.02
2018-02-27T04:42:57.218Z,92409.58
2018-02-27T04:45:24.771Z,92409.31
2018-02-27T04:47:52.759Z,92414.19
2018-02-27T04:50:20.307Z,92417.70
2018-02-27T04:52:47.859Z,92424.74
2018-02-27T04:55:15.444Z,92435.42
2018-02-27T04:57:43.706Z,92449.38
2018-02-27T05:00:11.269Z,92459.30
2018-02-27T05:02:38.952Z,92463.81
2018-02-27T05:05:06.506Z,92461.01
2018-02-27T05:07:34.070Z,92461.03
2018-02-27T05:10:01.789Z,92450.16
2018-02-27T05:12:29.338Z,92453.02
2018-02-27T05:14:56.874Z,92456.25
2018-02-27T05:17:24.588Z,92464.57
2018-02-27T05:19:52.130Z,92451.98
2018-02-27T05:22:19.707Z,92468.27
2018-02-27T05:24:47.387Z,92466.30
2018-02-27T05:27:14.941Z,92463.98
2018-02-27T05:29:42.486Z,92461.55
2018-02-27T05:32:10.363Z,92456.30
2018-02-27T05:34:37.946Z,92457.13
2018-02-27T05:37:05.491Z,92455.94
2018-02-27T05:39:33.232Z,92461.17
2018-02-27T05:42:00.777Z,92467.25
2018-02-27T05:44:28.317Z,92470.19
2018-02-27T05:46:55.882Z,92464.98
2018-02-27T05:49:23.430Z,92463.80
2018-02-27T05:51:51.005Z,92469.16
2018-02-27T05:54:18.903Z,92468.30
2018-02-27T05:56:46.441Z,92481.35
2018-02-27T05:59:13.978Z,92488.58
2018-02-27T06:01:41.598Z,92488.52
2018-02-27T06:04:09.150Z,92491.45
2018-02-27T06:06:36.706Z,92492.31
2018-02-27T06:09:04.420Z,92502.83
2018-02-27T06:11:31.964Z,92512.55
2018-02-27T06:13:59.522Z,92506.48
2018-02-27T06:16:27.081Z,92504.58
2018-02-27T06:18:54.623Z,92509.11
2018-02-27T06:21:22.215Z,92511.17
2018-02-27T06:23:50.089Z,92501.91
2018-02-27T06:26:17.630Z,92504.41
2018-02-27T06:28:45.183Z,92511.80
2018-02-27T06:31:13.521Z,92507.50
2018-02-27T06:33:41.067Z,92517.17
2018-02-27T06:36:08.619Z,92515.70
2018-02-27T06:38:36.195Z,92517.46
2018-02-27T06:41:03.746Z,92517.59
2018-02-27T06:43:31.287Z,92513.97
2018-02-27T06:45:59.032Z,92523.37
2018-02-27T06:48:26.589Z,92522.63
2018-02-27T06:50:54.161Z,92532.84
2018-02-27T06:53:21.895Z,92533.69
2018-02-27T06:55:49.440Z,92533.30
2018-02-27T06:58:16.994Z,92542.26
2018-02-27T07:00:44.581Z,92536.17
2018-02-27T07:03:12.139Z,92536.59
2018-02-27T07:05:39.679Z,92546.02
2018-02-27T07:08:07.254Z,92545.16
2018-02-27T07:10:34.790Z,92548.05
2018-02-27T07:13:02.330Z,92539.10
2018-02-27T07:15:30.199Z,92542.79
2018-02-27T07:17:57.750Z,92547.27
2018-02-27T07:20:25.321Z,92544.42
2018-02-27T07:22:53.044Z,92539.52
2018-02-27T07:25:20.600Z,92533.81
2018-02-27T07:27:48.146Z,92528.48
2018-02-27T07:30:15.867Z,92521.95
2018-02-27T07:32:43.405Z,92530.50
2018-02-27T07:35:10.950Z,92534.98
2018-02-27T07:37:38.514Z,92530.91
2018-02-27T07:40:06.069Z,92534.92
2018-02-27T07:42:33.618Z,92532.36
2018-02-27T07:45:01.347Z,92533.61
2018-02-27T07:47:28.895Z,92536.75
2018-02-27T07:49:56.448Z,92533.39
2018-02-27T07:52:24.006Z,92542.61
2018-02-27T07:54:51.545Z,92544.45
2018-02-27T07:57:19.410Z,92539.74
2018-02-27T07:59:46.952Z,92549.88
2018-02-27T08:02:14.493Z,92545.67
2018-02-27T08:04:42.058Z,92545.48
2018-02-27T08:07:09.618Z,92549.44
2018-02-27T08:09:37.194Z,92559.20
2018-02-27T08:12:04.923Z,92556.36
2018-02-27T08:14:32.486Z,92555.61
2018-02-27T08:17:00.036Z,92561.31
2018-02-27T08:19:27.625Z,92572.31
2018-02-27T08:21:55.219Z,92585.04
2018-02-27T08:24:22.748Z,92590.11
2018-02-27T08:26:50.332Z,92586.20
2018-02-27T08:29:17.878Z,92577.94
2018-02-27T08:31:45.431Z,92578.45
2018-02-27T08:34:13.156Z,92572.48
2018-02-27T08:36:40.702Z,92577.52
2018-02-27T08:39:08.263Z,92585.97
2018-02-27T08:41:35.830Z,92586.72
2018-02-27T08:44:03.386Z,92593.29
2018-02-27T08:46:30.941Z,92585.56
2018-02-27T08:48:58.566Z,92586.73
2018-02-27T08:51:26.116Z,92583.86
2018-02-27T08:53:53.664Z,92587.80
2018-02-27T08:56:21.239Z,92593.41
2018-02-27T08:58:48.797Z,92589.94
2018-02-27T09:01:16.353Z,92589.96
2018-02-27T09:03:44.107Z,92597.64
2018-02-27T09:06:11.646Z,92606.25
2018-02-27T09:08:39.204Z,92607.44
2018-02-27T09:11:06.984Z,92609.92
2018-02-27T09:13:34.536Z,92614.56
2018-02-27T09:16:02.079Z,92613.93
2018-02-27T09:18:29.796Z,92612.84
2018-02-27T09:20:57.355Z,92618.79
2018-02-27T09:23:24.909Z,92625.95
2018-02-27T09:25:52.481Z,92623.24
2018-02-27T09:28:20.027Z,92629.42
2018-02-27T09:30:47.580Z,92623.59
2018-02-27T09:33:15.298Z,92632.80
2018-02-27T09:35:42.843Z,92629.25
2018-02-27T09:38:10.468Z,92632.80
2018-02-27T09:40:38.127Z,92633.68
2018-02-27T09:43:05.690Z,92622.75
2018-02-27T09:45:33.245Z,92620.80
2018-02-27T09:48:00.873Z,92623.30
2018-02-27T09:50:28.431Z,92621.47
2018-02-27T09:52:55.993Z,92625.08
2018-02-27T09:55:23.705Z,92625.90
2018-02-27T09:57:51.251Z,92622.63
2018-02-27T10:00:18.811Z,92628.80
2018-02-27T10:02:46.421Z,92622.91
2018-02-27T10:05:14.621Z,92635.22
2018-02-27T10:07:42.189Z,92632.30
2018-02-27T10:10:09.932Z,92631.00
2018-02-27T10:12:37.490Z,92630.05
2018-02-27T10:15:05.124Z,92627.02
2018-02-27T10:17:32.814Z,92633.46
2018-02-27T10:20:00.388Z,92625.76
2018-02-27T10:22:27.958Z,92622.49
2018-02-27T10:24:55.704Z,92620.35
2018-02-27T10:27:23.276Z,92612.92
2018-02-27T10:29:50.834Z,92605.78
2018-02-27T10:32:18.542Z,92604.16
2018-02-27T10:34:46.119Z,92596.45
2018-02-27T10:37:13.683Z,92608.92
2018-02-27T10:39:41.562Z,92597.23
2018-02-27T10:42:09.123Z,92603.92
2018-02-27T10:44:36.691Z,92604.33
2018-02-27T10:47:04.295Z,92603.84
2018-02-27T10:49:31.867Z,92586.98
2018-02-27T10:51:59.429Z,92582.67
2018-02-27T10:54:27.034Z,92619.92
2018-02-27T10:56:54.572Z,92630.42
2018-02-27T10:59:22.153Z,92634.44
2018-02-27T11:01:55.208Z,92625.97
2018-02-27T11:04:22.781Z,92629.28
2018-02-27T11:06:50.340Z,92632.70
2018-02-27T11:09:18.122Z,92621.45
2018-02-27T11:11:45.671Z,92610.95
2018-02-27T11:14:13.234Z,92610.33
2018-02-27T11:16:40.807Z,92607.01
2018-02-27T11:19:08.356Z,92612.28
2018-02-27T11:21:35.917Z,92609.67
2018-02-27T11:24:03.790Z,92605.77
2018-02-27T11:26:31.347Z,92613.48
2018-02-27T11:28:58.892Z,92617.42
2018-02-27T11:31:26.627Z,92624.17
2018-02-27T11:33:54.170Z,92621.76
2018-02-27T11:36:21.709Z,92627.70
2018-02-27T11:38:49.291Z,92618.17
2018-02-27T11:41:16.869Z,92624.12
2018-02-27T11:43:44.435Z,92620.67
2018-02-27T11:46:12.310Z,92629.23
2018-02-27T11:48:39.863Z,92629.23
2018-02-27T11:51:07.411Z,92623.28
2018-02-27T11:53:35.089Z,92626.53
2018-02-27T11:56:02.645Z,92620.06
2018-02-27T11:58:30.199Z,92616.75
2018-02-27T12:00:57.774Z,92620.26
2018-02-27T12:03:25.330Z,92623.17
2018-02-27T12:05:52.874Z,92615.81
2018-02-27T12:08:20.446Z,92621.02
2018-02-27T12:10:47.998Z,92628.52
2018-02-27T12:13:15.551Z,92616.73
2018-02-27T12:15:43.163Z,92621.61
2018-02-27T12:18:10.722Z,92618.69
2018-02-27T12:20:38.267Z,92620.12
2018-02-27T12:23:06.138Z,92628.28
2018-02-27T12:25:33.715Z,92617.52
2018-02-27T12:28:01.281Z,92623.89
2018-02-27T12:30:28.896Z,92617.59
2018-02-27T12:32:56.456Z,92618.11
2018-02-27T12:35:24.014Z,92610.64
2018-02-27T12:37:51.723Z,92621.90
2018-02-27T12:40:19.278Z,92610.11
2018-02-27T12:42:46.844Z,92605.43
2018-02-27T12:45:14.714Z,92607.61
2018-02-27T12:47:42.269Z,92605.08
2018-02-27T12:50:09.825Z,92605.81
2018-02-27T12:52:37.392Z,92614.59
2018-02-27T12:55:04.939Z,92606.85
2018-02-27T12:57:32.817Z,92603.25
2018-02-27T13:00:00.375Z,92605.27
2018-02-27T13:02:27.926Z,92598.92
2018-02-27T13:04:55.550Z,92598.92
2018-02-27T13:07:23.107Z,92600.66
2018-02-27T13:09:50.664Z,92584.06
2018-02-27T13:12:18.284Z,92581.94
2018-02-27T13:14:45.835Z,92581.77
2018-02-27T13:17:13.394Z,92581.73
2018-02-27T13:19:40.963Z,92584.78
2018-02-27T13:22:08.519Z,92587.30
2018-02-27T13:24:36.104Z,92586.44
2018-02-27T13:27:03.692Z,92594.53
2018-02-27T13:29:31.243Z,92590.19
2018-02-27T13:31:58.808Z,92581.45
2018-02-27T13:34:26.386Z,92573.48
2018-02-27T13:36:53.942Z,92572.56
2018-02-27T13:39:21.508Z,92564.89
2018-02-27T13:41:49.261Z,92566.34
2018-02-27T13:44:16.813Z,92557.84
2018-02-27T13:46:44.378Z,92548.27
2018-02-27T13:49:12.338Z,92540.16
2018-02-27T13:51:39.864Z,92539.91
2018-02-27T13:54:07.414Z,92564.98
2018-02-27T13:56:35.009Z,92568.30
2018-02-27T13:59:02.588Z,92569.56
2018-02-27T14:01:30.156Z,92579.26
2018-02-27T14:03:57.775Z,92584.13
2018-02-27T14:06:25.327Z,92587.52
2018-02-27T14:08:52.903Z,92588.95
2018-02-27T14:11:20.496Z,92583.61
2018-02-27T14:13:48.049Z,92584.61
2018-02-27T14:16:15.590Z,92590.77
2018-02-27T14:18:43.341Z,92590.60
2018-02-27T14:21:10.959Z,92579.09
2018-02-27T14:23:38.520Z,92586.18
2018-02-27T14:26:06.134Z,92585.09
2018-02-27T14:28:33.692Z,92586.70
2018-02-27T14:31:01.236Z,92586.42
2018-02-27T14:33:28.826Z,92592.03
2018-02-27T14:35:56.372Z,92589.56
2018-02-27T14:38:23.944Z,92595.22
2018-02-27T14:40:51.815Z,92591.08
2018-02-27T14:43:19.398Z,92592.19
2018-02-27T14:45:46.949Z,92587.86
2018-02-27T14:48:14.805Z,92575.81
2018-02-27T14:50:42.354Z,92574.61
2018-02-27T14:53:09.919Z,92585.26
2018-02-27T14:55:37.541Z,92586.42
2018-02-27T14:58:05.097Z,92577.41
2018-02-27T15:00:32.643Z,92577.55
2018-02-27T15:03:00.329Z,92573.92
2018-02-27T15:05:27.909Z,92571.05
2018-02-27T15:07:55.513Z,92564.13
2018-02-27T15:10:23.157Z,92571.52
2018-02-27T15:12:50.731Z,92569.87
2018-02-27T15:15:18.324Z,92571.52
2018-02-27T15:17:45.926Z,92567.79
2018-02-27T15:20:13.484Z,92559.47
2018-02-27T15:22:41.051Z,92554.71
2018-02-27T15:25:08.752Z,92555.50
2018-02-27T15:27:36.337Z,92555.63
2018-02-27T15:30:03.966Z,92549.47
2018-02-27T15:32:31.839Z,92549.09
2018-02-27T15:34:59.403Z,92554.12
2018-02-27T15:37:26.957Z,92553.61
2018-02-27T15:39:54.552Z,92540.56
2018-02-27T15:42:22.095Z,92541.07
2018-02-27T15:44:49.659Z,92564.54
2018-02-27T15:47:17.410Z,92558.03
2018-02-27T15:49:45.028Z,92564.38
2018-02-27T15:52:12.620Z,92567.39
2018-02-27T15:54:40.201Z,92565.86
2018-02-27T15:57:07.754Z,92558.06
2018-02-27T15:59:36.243Z,92557.59
2018-02-27T16:02:03.871Z,92546.87
2018-02-27T16:04:31.514Z,92546.91
2018-02-27T16:06:59.191Z,92536.20
2018-02-27T16:09:27.209Z,92525.24
2018-02-27T16:11:54.784Z,92516.92
2018-02-27T16:14:22.355Z,92514.05
2018-02-27T16:16:49.955Z,92514.63
2018-02-27T16:19:17.528Z,92515.88
2018-02-27T16:21:45.111Z,92515.88
2018-02-27T16:24:12.953Z,92510.44
2018-02-27T16:26:40.527Z,92499.02
2018-02-27T16:29:08.104Z,92513.38
2018-02-27T16:31:35.836Z,92499.86
2018-02-27T16:34:03.405Z,92509.73
2018-02-27T16:36:30.981Z,92504.73
2018-02-27T16:38:58.594Z,92506.42
2018-02-27T16:41:26.206Z,92510.14
2018-02-27T16:43:53.880Z,92508.09
2018-02-27T16:46:21.611Z,92499.89
2018-02-27T16:48:49.218Z,92496.30
2018-02-27T16:51:16.811Z,92480.06
2018-02-27T16:53:44.398Z,92484.62
2018-02-27T16:56:12.096Z,92476.14
2018-02-27T16:58:39.728Z,92483.16
2018-02-27T17:01:07.449Z,92469.53
2018-02-27T17:03:35.080Z,92467.58
2018-02-27T17:06:03.030Z,92473.30
2018-02-27T17:08:30.681Z,92493.91
2018-02-27T17:10:58.263Z,92484.94
2018-02-27T17:13:25.920Z,92475.92
2018-02-27T17:15:53.503Z,92479.20
2018-02-27T17:18:21.072Z,92477.66
2018-02-27T17:20:48.695Z,92471.48
2018-02-27T17:23:16.290Z,92471.91
2018-02-27T17:25:43.875Z,92462.08
2018-02-27T17:28:11.487Z,92459.72
2018-02-27T17:30:39.052Z,92449.89
2018-02-27T17:33:06.621Z,92455.19
2018-02-27T17:35:34.192Z,92455.69
2018-02-27T17:38:01.756Z,92464.29
2018-02-27T17:40:29.357Z,92462.00
2018-02-27T17:42:57.236Z,92460.44
2018-02-27T17:45:25.637Z,92462.16
2018-02-27T17:47:53.202Z,92465.52
2018-02-27T17:50:21.164Z,92474.20
2018-02-27T17:52:48.727Z,92484.05
2018-02-27T17:55:16.284Z,92481.61
2018-02-27T17:57:43.864Z,92486.50
2018-02-27T18:00:11.436Z,92493.48
2018-02-27T18:02:39.067Z,92502.52
2018-02-27T18:05:06.951Z,92514.38
2018-02-27T18:07:34.524Z,92520.94
2018-02-27T18:10:02.091Z,92523.39
2018-02-27T18:12:29.776Z,92532.78
2018-02-27T18:14:57.339Z,92533.64
2018-02-27T18:17:24.910Z,92536.88
2018-02-27T18:19:52.522Z,92538.55
2018-02-27T18:22:20.093Z,92548.05
2018-02-27T18:24:47.764Z,92555.42
2018-02-27T18:27:15.552Z,92555.48
2018-02-27T18:29:43.296Z,92557.17
2018-02-27T18:32:10.880Z,92556.80
2018-02-27T18:34:38.736Z,92577.31
2018-02-27T18:37:06.313Z,92567.11
2018-02-27T18:39:33.879Z,92583.48
2018-02-27T18:42:01.670Z,92552.06
2018-02-27T18:44:29.242Z,92560.24
2018-02-27T18:46:56.834Z,92569.67
2018-02-27T18:49:24.534Z,92564.38
2018-02-27T18:51:52.082Z,92562.36
2018-02-27T18:54:19.699Z,92572.97
2018-02-27T18:56:47.412Z,92569.31
2018-02-27T18:59:15.009Z,92565.61
2018-02-27T19:01:42.588Z,92565.22
2018-02-27T19:04:10.200Z,92549.73
2018-02-27T19:06:37.855Z,92546.45
2018-02-27T19:09:05.580Z,92557.88
2018-02-27T19:11:33.311Z,92566.44
2018-02-27T19:14:01.017Z,92563.20
2018-02-27T19:16:28.600Z,92561.14
2018-02-27T19:18:56.383Z,92566.84
2018-02-27T19:21:23.946Z,92564.41
2018-02-27T19:23:51.564Z,92556.67
2018-02-27T19:26:19.236Z,92549.72
2018-02-27T19:28:46.848Z,92552.99
2018-02-27T19:31:14.412Z,92560.34
2018-02-27T19:33:42.136Z,92552.57
2018-02-27T19:36:09.709Z,92553.80
2018-02-27T19:38:37.303Z,92553.40
2018-02-27T19:41:04.983Z,92556.25
2018-02-27T19:43:32.554Z,92552.97
2018-02-27T19:46:00.141Z,92559.10
2018-02-27T19:48:27.861Z,92557.47
2018-02-27T19:50:55.475Z,92567.68
2018-02-27T19:53:23.291Z,92577.05
2018-02-27T19:55:51.140Z,92565.22
2018-02-27T19:58:18.745Z,92577.45
2018-02-27T20:00:46.321Z,92570.09
2018-02-27T20:03:13.929Z,92568.05
2018-02-27T20:05:41.488Z,92572.56
2018-02-27T20:08:09.189Z,92590.09
2018-02-27T20:10:36.886Z,92574.58
2018-02-27T20:13:04.509Z,92574.19
2018-02-27T20:15:32.180Z,92577.05
2018-02-27T20:18:05.218Z,92591.33
2018-02-27T20:20:32.806Z,92589.30
2018-02-27T20:23:05.974Z,92591.72
2018-02-27T20:25:33.871Z,92599.07
2018-02-27T20:28:01.433Z,92608.45
2018-02-27T20:30:28.986Z,92597.44
2018-02-27T20:32:56.612Z,92593.37
2018-02-27T20:35:24.214Z,92605.61
2018-02-27T20:37:51.816Z,92602.76
2018-02-27T20:40:20.206Z,92583.16
2018-02-27T20:42:47.822Z,92576.66
2018-02-27T20:45:15.408Z,92575.83
2018-02-27T20:47:42.995Z,92562.78
2018-02-27T20:50:10.604Z,92573.38
2018-02-27T20:52:38.189Z,92554.22
2018-02-27T20:55:06.291Z,92559.91
2018-02-27T20:57:33.849Z,92540.72
2018-02-27T21:00:01.447Z,92548.90
2018-02-27T21:02:29.203Z,92533.80
2018-02-27T21:04:56.781Z,92531.33
2018-02-27T21:07:24.369Z,92526.84
2018-02-27T21:09:51.970Z,92539.08
2018-02-27T21:12:19.551Z,92551.70
2018-02-27T21:14:47.119Z,92542.31
2018-02-27T21:17:14.709Z,92535.41
2018-02-27T21:19:42.272Z,92556.59
2018-02-27T21:22:09.866Z,92563.94
2018-02-27T21:24:37.442Z,92535.80
2018-02-27T21:27:05.010Z,92546.81
2018-02-27T21:29:32.564Z,92548.80
2018-02-27T21:32:00.424Z,92533.31
2018-02-27T21:34:28.010Z,92552.78
2018-02-27T21:36:55.603Z,92539.73
2018-02-27T21:39:23.404Z,92530.39
2018-02-27T21:41:50.989Z,92542.61
2018-02-27T21:44:18.598Z,92524.70
2018-02-27T21:46:46.473Z,92516.20
2018-02-27T21:49:14.049Z,92508.06
2018-02-27T21:51:41.606Z,92516.23
2018-02-27T21:54:09.176Z,92503.59
2018-02-27T21:56:36.733Z,92503.96
2018-02-27T21:59:04.609Z,92486.47
2018-02-27T22:01:32.157Z,92482.39
2018-02-27T22:04:00.464Z,92474.64
2018-02-27T22:06:28.133Z,92479.95
2018-02-27T22:08:55.689Z,92479.13
2018-02-27T22:11:23.230Z,92479.16
2018-02-27T22:13:50.915Z,92473.03
2018-02-27T22:16:18.484Z,92481.19
2018-02-27T22:18:46.044Z,92495.03
2018-02-27T22:21:13.727Z,92493.00
2018-02-27T22:23:41.282Z,92496.66
2018-02-27T22:26:08.827Z,92503.16
2018-02-27T22:28:36.410Z,92490.95
2018-02-27T22:31:03.952Z,92505.60
2018-02-27T22:33:31.513Z,92489.70
2018-02-27T22:35:59.110Z,92497.47
2018-02-27T22:38:26.652Z,92505.22
2018-02-27T22:40:54.212Z,92498.70
2018-02-27T22:43:21.778Z,92495.84
2018-02-27T22:45:49.425Z,92496.27
2018-02-27T22:48:16.970Z,92505.22
2018-02-27T22:50:44.536Z,92512.19
2018-02-27T22:53:12.099Z,92512.98
2018-02-27T22:55:39.669Z,92528.50
2018-02-27T22:58:07.245Z,92550.12
2018-02-27T23:00:40.585Z,92555.44
2018-02-27T23:03:08.327Z,92561.97
2018-02-27T23:05:35.874Z,92572.97
2018-02-27T23:08:03.424Z,92570.52
2018-02-27T23:10:31.020Z,92572.16
2018-02-27T23:12:58.578Z,92566.05
2018-02-27T23:15:26.135Z,92567.66
2018-02-27T23:17:53.868Z,92573.38
2018-02-27T23:20:21.427Z,92573.37
2018-02-27T23:22:48.990Z,92569.71
2018-02-27T23:25:24.903Z,92573.39
2018-02-27T23:27:54.320Z,92553.80
2018-02-27T23:30:22.185Z,92552.55
2018-02-27T23:32:55.000Z,92555.81
2018-02-27T23:35:25.534Z,92545.63
2018-02-27T23:37:53.087Z,92547.26
2018-02-27T23:40:20.784Z,92548.08
2018-02-27T23:42:48.346Z,92540.73
2018-02-27T23:45:15.916Z,92535.41
2018-02-27T23:47:43.648Z,92527.66
2018-02-27T23:50:11.217Z,92531.75
2018-02-27T23:52:38.766Z,92546.06
2018-02-27T23:55:06.350Z,92565.62
2018-02-27T23:57:33.914Z,92577.88
